createdAt,value
2018-11-28T00:00:23.210Z,-1.00
2018-11-28T00:02:51.037Z,-1.00
2018-11-28T00:05:19.109Z,-0.90
2018-11-28T00:48:11.203Z,-0.60
2018-11-28T00:50:39.419Z,-0.50
2018-11-28T00:53:07.221Z,-0.50
2018-11-28T00:55:35.181Z,-0.50
2018-11-28T00:58:03.091Z,-0.50
2018-11-28T01:00:31.020Z,-0.50
2018-11-28T01:02:58.833Z,-0.40
2018-11-28T01:05:27.042Z,-0.40
2018-11-28T01:07:55.192Z,-0.40
2018-11-28T01:10:24.170Z,-0.40
2018-11-28T01:12:52.976Z,-0.30
2018-11-28T01:15:21.105Z,-0.30
2018-11-28T01:17:48.985Z,-0.30
2018-11-28T01:20:19.503Z,-0.30
2018-11-28T01:22:47.503Z,-0.30
2018-11-28T01:25:16.847Z,-0.10
2018-11-28T01:27:44.949Z,-0.30
2018-11-28T01:30:18.408Z,-0.30
2018-11-28T01:32:46.404Z,-0.30
2018-11-28T01:35:16.036Z,-0.20
2018-11-28T01:37:44.014Z,-0.20
2018-11-28T01:40:27.700Z,-0.20
2018-11-28T01:42:55.580Z,-0.20
2018-11-28T01:45:24.006Z,-0.20
2018-11-28T01:47:51.911Z,-0.20
2018-11-28T01:50:20.898Z,-0.30
2018-11-28T01:52:48.900Z,-0.10
2018-11-28T01:55:18.286Z,-0.10
2018-11-28T01:57:46.200Z,0.00
2018-11-28T02:00:23.585Z,-0.10
2018-11-28T02:02:59.012Z,-0.10
2018-11-28T02:05:26.936Z,0.00
2018-11-28T02:07:54.836Z,0.00
2018-11-28T02:10:22.740Z,0.00
2018-11-28T02:12:51.136Z,0.00
2018-11-28T02:15:20.360Z,0.00
2018-11-28T02:17:48.308Z,0.00
2018-11-28T02:20:16.991Z,0.00
2018-11-28T02:22:45.412Z,0.00
2018-11-28T02:25:15.234Z,0.00
2018-11-28T02:27:43.317Z,0.00
2018-11-28T02:30:15.409Z,0.10
2018-11-28T02:32:43.858Z,0.10
2018-11-28T02:35:12.941Z,0.00
2018-11-28T02:37:41.246Z,0.00
2018-11-28T02:40:11.536Z,0.00
2018-11-28T02:42:39.456Z,0.00
2018-11-28T02:45:13.225Z,0.10
2018-11-28T02:47:41.165Z,0.10
2018-11-28T02:50:09.132Z,0.10
2018-11-28T02:52:48.962Z,0.10
2018-11-28T02:55:17.668Z,0.10
2018-11-28T02:57:51.087Z,0.10
2018-11-28T03:03:05.806Z,0.10
2018-11-28T03:05:33.832Z,0.10
2018-11-28T03:08:01.840Z,0.10
2018-11-28T03:10:29.793Z,0.10
2018-11-28T03:12:57.810Z,0.10
2018-11-28T03:15:30.948Z,0.20
2018-11-28T03:17:58.927Z,0.20
2018-11-28T03:20:26.995Z,0.20
2018-11-28T03:22:54.962Z,0.30
2018-11-28T03:25:22.949Z,0.30
2018-11-28T03:27:51.090Z,0.30
2018-11-28T03:30:19.121Z,0.30
2018-11-28T03:32:47.135Z,0.40
2018-11-28T03:35:16.221Z,0.40
2018-11-28T03:37:44.310Z,0.50
2018-11-28T03:40:12.629Z,0.50
2018-11-28T03:42:41.006Z,0.50
2018-11-28T03:45:11.519Z,0.50
2018-11-28T03:47:39.650Z,0.60
2018-11-28T03:50:09.419Z,0.60
2018-11-28T03:52:38.273Z,0.60
2018-11-28T03:55:11.324Z,0.60
2018-11-28T03:57:39.294Z,0.60
2018-11-28T04:00:14.797Z,0.60
2018-11-28T04:02:42.823Z,0.60
2018-11-28T04:05:11.383Z,0.70
2018-11-28T04:07:43.207Z,0.70
2018-11-28T04:10:13.239Z,0.70
2018-11-28T04:12:42.019Z,0.70
2018-11-28T04:15:18.181Z,0.70
2018-11-28T04:17:46.125Z,0.70
2018-11-28T04:20:15.416Z,0.80
2018-11-28T04:22:43.490Z,0.80
2018-11-28T04:25:12.571Z,0.80
2018-11-28T04:27:41.130Z,0.80
2018-11-28T04:30:11.079Z,0.80
2018-11-28T04:32:39.048Z,1.00
2018-11-28T04:35:09.460Z,0.90
2018-11-28T04:37:37.396Z,0.90
2018-11-28T04:40:10.544Z,0.90
2018-11-28T04:42:40.506Z,0.90
2018-11-28T04:45:13.463Z,0.90
2018-11-28T04:47:41.438Z,0.90
2018-11-28T04:50:10.482Z,1.00
2018-11-28T04:52:38.660Z,1.00
2018-11-28T04:55:10.056Z,1.00
2018-11-28T04:57:38.103Z,1.00
2018-11-28T05:00:16.279Z,0.90
2018-11-28T05:02:57.313Z,1.00
2018-11-28T05:05:36.027Z,1.00
2018-11-28T05:08:06.933Z,1.00
2018-11-28T05:10:34.903Z,1.10
2018-11-28T05:13:02.919Z,1.10
2018-11-28T05:15:32.482Z,1.10
2018-11-28T05:18:00.612Z,1.10
2018-11-28T05:20:32.835Z,1.20
2018-11-28T05:23:00.868Z,1.20
2018-11-28T05:25:28.884Z,1.30
2018-11-28T05:27:58.224Z,1.30
2018-11-28T05:30:29.624Z,1.30
2018-11-28T05:32:58.176Z,1.30
2018-11-28T05:35:32.761Z,1.30
2018-11-28T05:38:01.664Z,1.20
2018-11-28T05:40:29.591Z,1.20
2018-11-28T05:42:57.504Z,1.10
2018-11-28T05:45:25.509Z,1.10
2018-11-28T05:47:53.518Z,1.10
2018-11-28T05:50:22.050Z,1.10
2018-11-28T05:52:50.435Z,1.00
2018-11-28T05:55:21.334Z,0.90
2018-11-28T05:57:49.622Z,0.90
2018-11-28T06:00:34.474Z,0.90
2018-11-28T06:03:07.159Z,0.90
2018-11-28T06:05:35.182Z,1.00
2018-11-28T06:08:03.531Z,1.00
2018-11-28T06:10:31.487Z,1.00
2018-11-28T06:12:59.529Z,1.10
2018-11-28T06:15:27.500Z,1.10
2018-11-28T06:17:55.388Z,1.10
2018-11-28T06:20:23.645Z,1.10
2018-11-28T06:22:51.571Z,1.20
2018-11-28T06:25:19.520Z,1.30
2018-11-28T06:27:47.523Z,1.30
2018-11-28T06:30:16.822Z,1.30
2018-11-28T06:32:50.845Z,1.50
2018-11-28T06:35:13.357Z,1.40
2018-11-28T06:37:41.637Z,1.40
2018-11-28T06:40:15.459Z,1.50
2018-11-28T06:42:44.658Z,1.40
2018-11-28T06:45:15.251Z,1.50
2018-11-28T06:47:43.890Z,1.40
2018-11-28T06:50:16.028Z,1.50
2018-11-28T06:52:48.905Z,1.50
2018-11-28T06:55:20.506Z,1.60
2018-11-28T06:57:48.418Z,1.50
2018-11-28T07:00:19.915Z,1.60
2018-11-28T07:02:49.039Z,1.60
2018-11-28T07:05:17.137Z,1.50
2018-11-28T07:07:45.181Z,1.50
2018-11-28T07:10:16.367Z,1.40
2018-11-28T07:12:44.366Z,1.40
2018-11-28T07:15:16.548Z,1.30
2018-11-28T07:17:44.822Z,1.40
2018-11-28T07:20:14.098Z,1.40
2018-11-28T07:22:42.235Z,1.40
2018-11-28T07:25:16.885Z,1.50
2018-11-28T07:27:47.075Z,1.50
2018-11-28T07:30:17.414Z,1.60
2018-11-28T07:32:48.483Z,1.60
2018-11-28T07:35:16.418Z,1.50
2018-11-28T07:37:46.563Z,1.50
2018-11-28T07:40:20.901Z,1.50
2018-11-28T07:43:12.826Z,1.50
2018-11-28T07:45:44.826Z,1.50
2018-11-28T07:48:13.775Z,1.50
2018-11-28T07:50:41.683Z,1.40
2018-11-28T07:53:09.980Z,1.50
2018-11-28T07:55:38.099Z,1.50
2018-11-28T07:58:06.322Z,1.40
2018-11-28T08:00:36.214Z,1.50
2018-11-28T08:03:08.848Z,1.60
2018-11-28T08:05:37.973Z,1.60
2018-11-28T08:08:10.577Z,1.70
2018-11-28T08:10:38.765Z,1.70
2018-11-28T08:13:07.394Z,1.70
2018-11-28T08:15:35.339Z,1.80
2018-11-28T08:18:06.710Z,1.90
2018-11-28T08:20:35.278Z,1.90
2018-11-28T08:23:03.272Z,2.00
2018-11-28T08:25:38.761Z,2.10
2018-11-28T08:28:07.000Z,2.10
2018-11-28T08:30:35.519Z,2.20
2018-11-28T08:33:03.662Z,2.30
2018-11-28T08:35:31.833Z,2.30
2018-11-28T08:38:00.407Z,2.40
2018-11-28T08:40:28.551Z,2.50
2018-11-28T08:42:59.905Z,2.70
2018-11-28T08:45:27.975Z,2.70
2018-11-28T08:47:57.488Z,2.60
2018-11-28T08:50:32.349Z,2.70
2018-11-28T08:53:00.273Z,2.80
2018-11-28T08:55:28.227Z,2.80
2018-11-28T08:57:56.225Z,2.80
2018-11-28T09:00:25.555Z,2.80
2018-11-28T09:02:54.931Z,2.80
2018-11-28T09:05:23.059Z,2.80
2018-11-28T09:07:51.538Z,2.80
2018-11-28T09:10:20.259Z,2.80
2018-11-28T09:12:49.253Z,2.90
2018-11-28T09:15:23.126Z,3.00
2018-11-28T09:17:51.121Z,3.10
2018-11-28T09:20:19.140Z,3.10
2018-11-28T09:22:48.703Z,3.20
2018-11-28T09:25:18.099Z,3.50
2018-11-28T09:27:48.816Z,3.60
2018-11-28T09:30:18.322Z,3.70
2018-11-28T09:32:48.606Z,4.20
2018-11-28T09:35:17.074Z,4.70
2018-11-28T09:37:46.194Z,4.50
2018-11-28T09:40:23.193Z,4.40
2018-11-28T09:42:56.758Z,4.60
2018-11-28T09:45:25.088Z,4.60
2018-11-28T09:47:53.027Z,4.80
2018-11-28T09:50:24.134Z,4.80
2018-11-28T09:52:52.064Z,4.70
2018-11-28T09:55:22.814Z,4.50
2018-11-28T09:57:52.971Z,4.60
2018-11-28T10:00:31.543Z,4.50
2018-11-28T10:03:00.536Z,4.80
2018-11-28T10:05:36.480Z,5.20
2018-11-28T10:08:04.871Z,8.30
2018-11-28T10:10:32.905Z,11.20
2018-11-28T10:13:01.706Z,12.30
2018-11-28T10:15:35.560Z,11.80
2018-11-28T10:18:01.559Z,11.70
2018-11-28T10:20:29.549Z,10.60
2018-11-28T10:22:57.570Z,9.90
2018-11-28T10:25:26.393Z,10.20
2018-11-28T10:28:00.489Z,10.90
2018-11-28T10:30:29.968Z,11.90
2018-11-28T10:32:57.885Z,12.40
2018-11-28T10:35:27.115Z,11.90
2018-11-28T10:37:55.322Z,11.30
2018-11-28T10:40:25.455Z,10.40
2018-11-28T10:42:58.270Z,9.70
2018-11-28T10:45:28.677Z,8.90
2018-11-28T10:47:56.794Z,8.30
2018-11-28T10:50:24.791Z,7.80
2018-11-28T10:52:52.747Z,7.50
2018-11-28T10:55:22.681Z,7.10
2018-11-28T10:57:50.865Z,6.90
2018-11-28T11:00:27.748Z,6.80
2018-11-28T11:03:01.549Z,6.60
2018-11-28T11:05:35.146Z,6.40
2018-11-28T11:08:08.791Z,6.30
2018-11-28T11:10:43.513Z,6.10
2018-11-28T11:13:18.084Z,5.90
2018-11-28T11:15:52.285Z,5.80
2018-11-28T11:18:20.322Z,5.50
2018-11-28T11:20:48.236Z,5.10
2018-11-28T11:23:16.492Z,4.90
2018-11-28T11:25:44.438Z,4.80
2018-11-28T11:28:12.428Z,5.30
2018-11-28T11:30:40.382Z,7.50
2018-11-28T11:33:08.485Z,9.10
2018-11-28T11:35:36.493Z,11.40
2018-11-28T11:38:04.700Z,14.00
2018-11-28T11:40:32.661Z,16.10
2018-11-28T11:43:00.660Z,17.60
2018-11-28T11:45:28.563Z,19.20
2018-11-28T11:47:56.480Z,20.60
2018-11-28T11:50:24.461Z,21.40
2018-11-28T11:52:52.371Z,22.30
2018-11-28T11:55:20.338Z,22.80
2018-11-28T11:57:48.970Z,23.20
2018-11-28T12:00:20.559Z,23.30
2018-11-28T12:02:56.186Z,24.20
2018-11-28T12:05:24.665Z,24.70
2018-11-28T12:07:52.933Z,23.20
2018-11-28T12:10:20.895Z,22.60
2018-11-28T12:12:51.677Z,22.50
2018-11-28T12:15:17.461Z,22.70
2018-11-28T12:17:48.367Z,23.00
2018-11-28T12:20:19.923Z,22.90
2018-11-28T12:22:49.215Z,23.00
2018-11-28T12:25:17.255Z,22.60
2018-11-28T12:27:45.666Z,21.20
2018-11-28T12:30:14.938Z,19.30
2018-11-28T12:32:43.488Z,17.40
2018-11-28T12:35:15.224Z,15.60
2018-11-28T12:37:43.279Z,14.40
2018-11-28T12:40:12.911Z,13.20
2018-11-28T12:42:44.279Z,12.00
2018-11-28T12:45:16.674Z,10.90
2018-11-28T12:47:46.131Z,9.80
2018-11-28T12:50:22.586Z,9.20
2018-11-28T12:52:51.669Z,8.80
2018-11-28T12:55:20.150Z,8.90
2018-11-28T12:57:48.258Z,8.60
2018-11-28T13:00:18.077Z,7.90
2018-11-28T13:02:48.028Z,7.50
2018-11-28T13:05:18.017Z,7.00
2018-11-28T13:07:46.040Z,7.00
2018-11-28T13:10:21.604Z,7.20
2018-11-28T13:12:50.513Z,7.30
2018-11-28T13:15:20.063Z,7.40
2018-11-28T13:17:48.012Z,7.40
2018-11-28T13:20:17.426Z,7.20
2018-11-28T13:22:46.700Z,6.70
2018-11-28T13:25:16.304Z,6.60
2018-11-28T13:27:45.749Z,6.40
2018-11-28T13:30:21.490Z,7.00
2018-11-28T13:32:50.247Z,7.70
2018-11-28T13:35:29.338Z,7.30
2018-11-28T13:38:02.903Z,6.70
2018-11-28T13:40:31.163Z,6.20
2018-11-28T13:42:59.195Z,5.70
2018-11-28T13:45:29.923Z,5.40
2018-11-28T13:48:11.079Z,5.10
2018-11-28T13:50:41.349Z,4.80
2018-11-28T13:53:14.748Z,4.60
2018-11-28T13:56:57.203Z,4.20
2018-11-28T13:58:26.779Z,4.00
2018-11-28T14:01:00.582Z,3.90
2018-11-28T14:03:28.584Z,3.70
2018-11-28T14:06:03.504Z,3.60
2018-11-28T14:08:31.639Z,3.60
2018-11-28T14:10:59.527Z,3.70
2018-11-28T14:13:27.464Z,3.70
2018-11-28T14:15:55.419Z,3.60
2018-11-28T14:18:23.379Z,3.30
2018-11-28T14:20:55.351Z,3.00
2018-11-28T14:23:23.334Z,2.60
2018-11-28T14:25:51.231Z,2.40
2018-11-28T14:28:19.837Z,2.10
2018-11-28T14:30:48.292Z,1.80
2018-11-28T14:33:16.272Z,1.70
2018-11-28T14:35:44.663Z,1.50
2018-11-28T14:38:12.599Z,1.30
2018-11-28T14:40:40.608Z,1.10
2018-11-28T14:43:08.820Z,0.90
2018-11-28T14:45:37.054Z,0.90
2018-11-28T14:48:05.224Z,0.80
2018-11-28T14:50:33.329Z,0.70
2018-11-28T14:53:02.489Z,0.60
2018-11-28T14:55:35.867Z,0.50
2018-11-28T14:58:04.099Z,0.50
2018-11-28T15:00:32.545Z,0.50
2018-11-28T15:03:24.344Z,0.50
2018-11-28T15:07:11.099Z,0.40
2018-11-28T15:09:51.303Z,0.40
2018-11-28T15:12:32.975Z,0.30
2018-11-28T15:15:02.366Z,0.10
2018-11-28T15:17:33.302Z,0.00
2018-11-28T15:20:02.147Z,-0.10
2018-11-28T15:22:30.036Z,-0.10
2018-11-28T15:24:59.351Z,-0.10
2018-11-28T15:27:27.368Z,0.00
2018-11-28T15:29:55.272Z,0.00
2018-11-28T15:32:23.278Z,0.10
2018-11-28T15:34:52.150Z,0.10
2018-11-28T15:37:20.836Z,0.20
2018-11-28T15:39:48.987Z,0.20
2018-11-28T15:42:16.911Z,0.20
2018-11-28T15:44:44.779Z,0.30
2018-11-28T15:47:12.955Z,0.30
2018-11-28T15:49:40.954Z,0.30
2018-11-28T15:52:09.144Z,0.20
2018-11-28T15:54:37.129Z,0.20
2018-11-28T15:57:05.270Z,0.20
2018-11-28T15:59:33.208Z,0.10
2018-11-28T16:02:01.138Z,0.10
2018-11-28T16:04:30.177Z,0.00
2018-11-28T16:06:58.204Z,-0.10
2018-11-28T16:09:32.052Z,-0.30
2018-11-28T16:12:00.039Z,-0.50
2018-11-28T16:14:28.034Z,-0.70
2018-11-28T16:17:16.160Z,-0.80
2018-11-28T16:19:46.454Z,-1.00
2018-11-28T16:22:15.278Z,-1.10
2018-11-28T16:27:23.032Z,-1.10
2018-11-28T16:29:52.412Z,-1.10
2018-11-28T16:32:23.789Z,-1.00
2018-11-28T16:34:55.482Z,-0.90
2018-11-28T16:37:23.507Z,-0.90
2018-11-28T16:39:51.467Z,-0.80
2018-11-28T16:42:48.214Z,-0.80
2018-11-28T16:45:21.349Z,-0.80
2018-11-28T16:47:49.429Z,-0.90
2018-11-28T16:50:17.954Z,-1.00
2018-11-28T16:52:46.426Z,-1.00
2018-11-28T16:55:16.929Z,-1.10
2018-11-28T16:57:47.232Z,-1.30
2018-11-28T17:00:18.016Z,-1.40
2018-11-28T17:02:46.622Z,-1.40
2018-11-28T17:05:18.392Z,-1.40
2018-11-28T17:07:46.635Z,-1.40
2018-11-28T17:10:28.229Z,-1.50
2018-11-28T17:12:57.358Z,-1.50
2018-11-28T17:15:25.583Z,-1.60
2018-11-28T17:17:53.723Z,-1.70
2018-11-28T17:20:24.298Z,-1.70
2018-11-28T17:22:54.458Z,-1.70
2018-11-28T17:25:26.302Z,-1.70
2018-11-28T17:30:29.195Z,-1.70
2018-11-28T17:33:02.721Z,-1.60
2018-11-28T17:35:30.731Z,-1.50
2018-11-28T17:37:58.764Z,-1.30
2018-11-28T17:40:28.967Z,-1.20
2018-11-28T17:42:58.475Z,-1.10
2018-11-28T17:45:27.460Z,-0.90
2018-11-28T17:47:55.606Z,-0.80
2018-11-28T17:50:24.936Z,-0.70
2018-11-28T17:53:11.059Z,-0.70
2018-11-28T17:55:48.961Z,-0.70
2018-11-28T17:58:18.417Z,-0.60
2018-11-28T18:00:46.542Z,-0.80
2018-11-28T18:03:14.707Z,-0.60
2018-11-28T18:05:43.001Z,-0.50
2018-11-28T18:08:11.004Z,-0.50
2018-11-28T18:10:38.972Z,-0.50
2018-11-28T18:13:12.488Z,-0.50
2018-11-28T18:15:42.230Z,-0.60
2018-11-28T18:18:11.868Z,-0.60
2018-11-28T18:20:39.864Z,-0.60
2018-11-28T18:23:09.132Z,-0.60
2018-11-28T18:25:38.067Z,-0.60
2018-11-28T18:28:07.378Z,-0.60
2018-11-28T18:30:35.899Z,-0.60
2018-11-28T18:33:04.967Z,-0.70
2018-11-28T18:35:32.966Z,-0.60
2018-11-28T18:38:01.325Z,-0.70
2018-11-28T18:40:29.280Z,-0.70
2018-11-28T18:42:57.330Z,-0.70
2018-11-28T18:45:27.472Z,-0.70
2018-11-28T18:47:55.699Z,-0.80
2018-11-28T18:50:23.688Z,-0.90
2018-11-28T18:52:51.707Z,-0.90
2018-11-28T18:55:20.541Z,-0.90
2018-11-28T18:57:50.763Z,-0.90
2018-11-28T19:00:21.191Z,-1.00
2018-11-28T19:02:49.431Z,-0.90
2018-11-28T19:05:17.467Z,-0.90
2018-11-28T19:07:46.771Z,-1.00
2018-11-28T19:10:26.065Z,-1.00
2018-11-28T19:12:48.658Z,-0.90
2018-11-28T19:15:23.090Z,-0.90
2018-11-28T19:17:55.407Z,-0.90
2018-11-28T19:20:23.874Z,-0.90
2018-11-28T19:22:54.178Z,-1.00
2018-11-28T19:25:27.975Z,-0.90
2018-11-28T19:27:56.028Z,-0.90
2018-11-28T19:30:35.012Z,-0.90
2018-11-28T19:33:03.226Z,-0.90
2018-11-28T19:35:31.213Z,-1.00
2018-11-28T19:37:59.347Z,-1.00
2018-11-28T19:40:32.293Z,-1.00
2018-11-28T19:45:34.139Z,-1.00
2018-11-28T19:48:02.253Z,-1.00
2018-11-28T19:50:32.490Z,-1.10
2018-11-28T19:53:00.584Z,-1.10
2018-11-28T19:55:29.947Z,-1.10
2018-11-28T19:57:58.775Z,-1.10
2018-11-28T20:00:26.854Z,-1.20
2018-11-28T20:02:54.916Z,-1.20
2018-11-28T20:05:23.037Z,-1.20
2018-11-28T20:07:51.859Z,-1.20
2018-11-28T20:10:21.537Z,-1.30
2018-11-28T20:12:51.992Z,-1.40
2018-11-28T20:15:24.033Z,-1.30
2018-11-28T20:17:55.743Z,-1.40
2018-11-28T20:20:23.883Z,-1.50
2018-11-28T20:22:51.906Z,-1.50
2018-11-28T20:25:22.695Z,-1.50
2018-11-28T20:27:58.557Z,-1.50
2018-11-28T20:30:39.315Z,-1.50
2018-11-28T20:33:08.007Z,-1.50
2018-11-28T20:35:36.728Z,-1.40
2018-11-28T20:38:05.258Z,-1.40
2018-11-28T20:40:37.551Z,-1.30
2018-11-28T20:43:05.848Z,-1.30
2018-11-28T20:45:33.960Z,-1.20
2018-11-28T20:48:02.009Z,-1.30
2018-11-28T20:50:32.867Z,-1.30
2018-11-28T20:53:04.395Z,-1.30
2018-11-28T20:55:32.397Z,-1.30
2018-11-28T20:58:01.125Z,-1.30
2018-11-28T21:00:29.252Z,-1.40
2018-11-28T21:02:57.555Z,-1.40
2018-11-28T21:05:25.605Z,-1.30
2018-11-28T21:07:54.223Z,-1.60
2018-11-28T21:10:27.956Z,-1.60
2018-11-28T21:12:56.081Z,-1.60
2018-11-28T21:15:24.230Z,-1.70
2018-11-28T21:17:52.203Z,-1.90
2018-11-28T21:20:21.561Z,-2.00
2018-11-28T21:22:57.017Z,-2.10
2018-11-28T21:25:25.011Z,-2.30
2018-11-28T21:27:53.879Z,-2.40
2018-11-28T21:30:21.977Z,-2.50
2018-11-28T21:32:51.466Z,-2.70
2018-11-28T21:35:29.068Z,-2.60
2018-11-28T21:37:57.200Z,-2.90
2018-11-28T21:40:25.308Z,-3.00
2018-11-28T21:42:53.374Z,-3.10
2018-11-28T21:45:22.477Z,-3.20
2018-11-28T21:47:50.563Z,-3.30
2018-11-28T21:50:19.137Z,-3.30
2018-11-28T21:52:47.486Z,-3.40
2018-11-28T21:55:20.578Z,-3.40
2018-11-28T21:57:48.636Z,-3.50
2018-11-28T22:00:23.019Z,-3.60
2018-11-28T22:02:51.127Z,-3.70
2018-11-28T22:05:23.070Z,-3.70
2018-11-28T22:07:51.129Z,-3.80
2018-11-28T22:10:23.362Z,-3.80
2018-11-28T22:12:51.882Z,-3.90
2018-11-28T22:15:19.815Z,-4.00
2018-11-28T22:17:51.244Z,-4.10
2018-11-28T22:20:19.260Z,-4.20
2018-11-28T22:22:47.372Z,-4.20
2018-11-28T22:25:19.562Z,-4.40
2018-11-28T22:27:47.482Z,-4.40
2018-11-28T22:30:17.957Z,-4.50
2018-11-28T22:32:46.030Z,-4.80
2018-11-28T22:35:13.981Z,-4.80
2018-11-28T22:37:41.896Z,-4.80
2018-11-28T22:40:14.490Z,-4.90
2018-11-28T22:42:42.461Z,-5.00
2018-11-28T22:45:19.352Z,-5.10
2018-11-28T22:47:47.453Z,-5.10
2018-11-28T22:50:15.591Z,-5.20
2018-11-28T22:52:43.660Z,-5.30
2018-11-28T22:55:13.186Z,-5.30
2018-11-28T22:57:41.277Z,-5.40
2018-11-28T23:00:24.227Z,-5.40
2018-11-28T23:02:57.868Z,-5.50
2018-11-28T23:05:27.731Z,-5.50
2018-11-28T23:07:57.030Z,-5.50
2018-11-28T23:10:25.101Z,-5.60
2018-11-28T23:12:53.176Z,-5.60
2018-11-28T23:15:21.284Z,-5.60
2018-11-28T23:17:54.854Z,-5.60
2018-11-28T23:20:17.566Z,-5.60
2018-11-28T23:22:45.671Z,-5.70
2018-11-28T23:25:13.809Z,-5.70
2018-11-28T23:27:42.169Z,-5.70
2018-11-28T23:30:13.499Z,-5.70
2018-11-28T23:32:41.469Z,-5.70
2018-11-28T23:35:10.509Z,-5.70
2018-11-28T23:37:39.667Z,-5.60
2018-11-28T23:40:17.783Z,-5.60
2018-11-28T23:42:45.731Z,-5.60
2018-11-28T23:45:14.342Z,-5.60
2018-11-28T23:47:42.353Z,-5.60
2018-11-28T23:50:16.337Z,-5.60
2018-11-28T23:52:44.710Z,-5.60
2018-11-28T23:55:26.345Z,-5.60
2018-11-28T23:57:58.873Z,-5.60
